Shelton, Connecticut
Current Conditions -  °F | °C
As of 12:52 AM on Friday 31 Oct 2014 (Local Time) from KBDR Reporting Station
Few Clouds Few Clouds  
Wind Chill: 42°   Ceiling: Unl
Heat Index: 47°   Visibility: 10mi
Dew Point: 35°   Wind: 10mph
Humidity: 63%   Direction: 350°N
Pressure: 30.01"   Gusts: NA
Location:  41.32°N, 73.11°W
Report Text: KBDR 310452Z AUTO 35009KT 10SM FEW050 08/02 A3001 RMK AO2 SLP163 T00830017 401560056
Loading
Personal Weather Stations






























Interactive Weather Map New forecast layout! Learn more

10-Day Weather Forecast

Advertisements
Track Severe Weather on mobile